sensor_id;sensor_type;location;lat;lon;timestamp;temperature;humidity
72277;SHT30;61204;49.980;8.358;2022-12-07T00:01:46;3.24;91.56
72277;SHT30;61204;49.980;8.358;2022-12-07T00:04:16;3.26;91.61
72277;SHT30;61204;49.980;8.358;2022-12-07T00:06:46;3.24;91.66
72277;SHT30;61204;49.980;8.358;2022-12-07T00:09:17;3.35;91.22
72277;SHT30;61204;49.980;8.358;2022-12-07T00:11:44;3.35;91.23
72277;SHT30;61204;49.980;8.358;2022-12-07T00:14:14;3.31;91.29
72277;SHT30;61204;49.980;8.358;2022-12-07T00:16:42;3.28;91.33
72277;SHT30;61204;49.980;8.358;2022-12-07T00:19:11;3.31;91.39
72277;SHT30;61204;49.980;8.358;2022-12-07T00:21:38;3.30;91.43
72277;SHT30;61204;49.980;8.358;2022-12-07T00:24:05;3.30;91.40
72277;SHT30;61204;49.980;8.358;2022-12-07T00:26:37;3.26;91.51
72277;SHT30;61204;49.980;8.358;2022-12-07T00:29:15;3.27;91.58
72277;SHT30;61204;49.980;8.358;2022-12-07T00:31:42;3.30;91.29
72277;SHT30;61204;49.980;8.358;2022-12-07T00:34:14;3.33;91.12
72277;SHT30;61204;49.980;8.358;2022-12-07T00:36:42;3.35;91.04
72277;SHT30;61204;49.980;8.358;2022-12-07T00:39:07;3.31;90.80
72277;SHT30;61204;49.980;8.358;2022-12-07T00:41:34;3.31;90.72
72277;SHT30;61204;49.980;8.358;2022-12-07T00:43:59;3.27;91.05
72277;SHT30;61204;49.980;8.358;2022-12-07T00:46:26;3.24;91.49
72277;SHT30;61204;49.980;8.358;2022-12-07T00:48:53;3.26;91.08
72277;SHT30;61204;49.980;8.358;2022-12-07T00:51:22;3.30;90.61
72277;SHT30;61204;49.980;8.358;2022-12-07T00:53:50;3.34;90.40
72277;SHT30;61204;49.980;8.358;2022-12-07T00:56:23;3.40;90.01
72277;SHT30;61204;49.980;8.358;2022-12-07T00:58:56;3.38;89.96
72277;SHT30;61204;49.980;8.358;2022-12-07T01:01:27;3.35;89.83
72277;SHT30;61204;49.980;8.358;2022-12-07T01:03:54;3.31;90.06
72277;SHT30;61204;49.980;8.358;2022-12-07T01:06:23;3.22;90.32
72277;SHT30;61204;49.980;8.358;2022-12-07T01:08:50;3.22;90.48
72277;SHT30;61204;49.980;8.358;2022-12-07T01:11:24;3.12;90.39
72277;SHT30;61204;49.980;8.358;2022-12-07T01:13:54;3.06;90.69
72277;SHT30;61204;49.980;8.358;2022-12-07T01:16:24;2.99;91.18
72277;SHT30;61204;49.980;8.358;2022-12-07T01:18:53;2.99;91.17
72277;SHT30;61204;49.980;8.358;2022-12-07T01:21:27;2.92;91.45
72277;SHT30;61204;49.980;8.358;2022-12-07T01:23:57;2.91;91.86
72277;SHT30;61204;49.980;8.358;2022-12-07T01:26:25;2.89;91.91
72277;SHT30;61204;49.980;8.358;2022-12-07T01:28:52;2.88;92.17
72277;SHT30;61204;49.980;8.358;2022-12-07T01:31:22;2.84;92.28
72277;SHT30;61204;49.980;8.358;2022-12-07T01:33:54;2.86;92.29
72277;SHT30;61204;49.980;8.358;2022-12-07T01:36:28;2.85;92.38
72277;SHT30;61204;49.980;8.358;2022-12-07T01:39:03;2.89;92.24
72277;SHT30;61204;49.980;8.358;2022-12-07T01:41:35;2.93;92.12
72277;SHT30;61204;49.980;8.358;2022-12-07T01:44:22;2.91;92.11
72277;SHT30;61204;49.980;8.358;2022-12-07T01:46:56;2.88;92.27
72277;SHT30;61204;49.980;8.358;2022-12-07T01:49:39;2.89;92.31
72277;SHT30;61204;49.980;8.358;2022-12-07T01:52:23;2.91;92.27
72277;SHT30;61204;49.980;8.358;2022-12-07T01:55:01;2.92;92.38
72277;SHT30;61204;49.980;8.358;2022-12-07T01:57:34;2.89;92.55
72277;SHT30;61204;49.980;8.358;2022-12-07T02:00:07;2.86;92.66
72277;SHT30;61204;49.980;8.358;2022-12-07T02:02:39;2.86;92.71
72277;SHT30;61204;49.980;8.358;2022-12-07T02:05:11;2.84;92.79
72277;SHT30;61204;49.980;8.358;2022-12-07T02:07:38;2.86;92.80
72277;SHT30;61204;49.980;8.358;2022-12-07T02:10:16;2.86;92.80
72277;SHT30;61204;49.980;8.358;2022-12-07T02:12:57;2.93;92.44
72277;SHT30;61204;49.980;8.358;2022-12-07T02:15:59;2.89;92.49
72277;SHT30;61204;49.980;8.358;2022-12-07T02:19:05;2.95;92.55
72277;SHT30;61204;49.980;8.358;2022-12-07T02:25:35;3.02;93.03
72277;SHT30;61204;49.980;8.358;2022-12-07T02:28:35;3.05;93.00
72277;SHT30;61204;49.980;8.358;2022-12-07T02:31:12;3.00;93.20
72277;SHT30;61204;49.980;8.358;2022-12-07T02:34:09;3.02;93.49
72277;SHT30;61204;49.980;8.358;2022-12-07T02:36:52;3.05;93.12
72277;SHT30;61204;49.980;8.358;2022-12-07T02:39:40;3.06;93.12
72277;SHT30;61204;49.980;8.358;2022-12-07T02:42:19;3.05;93.69
72277;SHT30;61204;49.980;8.358;2022-12-07T02:44:51;3.13;93.56
72277;SHT30;61204;49.980;8.358;2022-12-07T02:47:19;3.06;93.55
72277;SHT30;61204;49.980;8.358;2022-12-07T02:49:51;3.02;93.85
72277;SHT30;61204;49.980;8.358;2022-12-07T02:52:17;3.03;94.07
72277;SHT30;61204;49.980;8.358;2022-12-07T02:54:43;3.03;94.15
72277;SHT30;61204;49.980;8.358;2022-12-07T02:57:42;2.99;94.12
72277;SHT30;61204;49.980;8.358;2022-12-07T03:00:25;3.02;94.29
72277;SHT30;61204;49.980;8.358;2022-12-07T03:02:58;3.02;94.25
72277;SHT30;61204;49.980;8.358;2022-12-07T03:08:41;3.03;94.48
72277;SHT30;61204;49.980;8.358;2022-12-07T03:11:15;3.03;94.29
72277;SHT30;61204;49.980;8.358;2022-12-07T03:14:30;3.07;94.21
72277;SHT30;61204;49.980;8.358;2022-12-07T03:17:12;3.07;94.08
72277;SHT30;61204;49.980;8.358;2022-12-07T03:19:44;3.06;94.09
72277;SHT30;61204;49.980;8.358;2022-12-07T03:22:16;3.05;94.24
72277;SHT30;61204;49.980;8.358;2022-12-07T03:25:06;3.06;94.33
72277;SHT30;61204;49.980;8.358;2022-12-07T03:27:49;3.02;94.44
72277;SHT30;61204;49.980;8.358;2022-12-07T03:30:22;3.03;94.58
72277;SHT30;61204;49.980;8.358;2022-12-07T03:33:04;3.00;94.73
72277;SHT30;61204;49.980;8.358;2022-12-07T03:35:46;2.99;94.75
72277;SHT30;61204;49.980;8.358;2022-12-07T03:39:09;3.00;94.55
72277;SHT30;61204;49.980;8.358;2022-12-07T03:41:47;3.05;94.34
72277;SHT30;61204;49.980;8.358;2022-12-07T03:44:15;3.05;94.49
72277;SHT30;61204;49.980;8.358;2022-12-07T03:47:04;3.13;94.48
72277;SHT30;61204;49.980;8.358;2022-12-07T03:49:43;3.10;94.46
72277;SHT30;61204;49.980;8.358;2022-12-07T03:55:28;3.20;93.91
72277;SHT30;61204;49.980;8.358;2022-12-07T03:58:03;3.17;93.86
72277;SHT30;61204;49.980;8.358;2022-12-07T04:00:32;3.17;94.03
72277;SHT30;61204;49.980;8.358;2022-12-07T04:02:58;3.19;93.82
72277;SHT30;61204;49.980;8.358;2022-12-07T04:05:23;3.24;93.70
72277;SHT30;61204;49.980;8.358;2022-12-07T04:07:49;3.38;93.38
72277;SHT30;61204;49.980;8.358;2022-12-07T04:10:15;3.41;92.90
72277;SHT30;61204;49.980;8.358;2022-12-07T04:12:41;3.40;92.87
72277;SHT30;61204;49.980;8.358;2022-12-07T04:15:07;3.45;92.44
72277;SHT30;61204;49.980;8.358;2022-12-07T04:17:34;3.47;92.37
72277;SHT30;61204;49.980;8.358;2022-12-07T04:19:59;3.45;92.40
72277;SHT30;61204;49.980;8.358;2022-12-07T04:22:25;3.48;92.38
72277;SHT30;61204;49.980;8.358;2022-12-07T04:24:50;3.48;92.31
72277;SHT30;61204;49.980;8.358;2022-12-07T04:27:16;3.45;92.25
72277;SHT30;61204;49.980;8.358;2022-12-07T04:29:42;3.42;92.52
72277;SHT30;61204;49.980;8.358;2022-12-07T04:32:07;3.44;92.81
72277;SHT30;61204;49.980;8.358;2022-12-07T04:34:33;3.44;92.84
72277;SHT30;61204;49.980;8.358;2022-12-07T04:36:58;3.41;92.80
72277;SHT30;61204;49.980;8.358;2022-12-07T04:39:31;3.42;92.89
72277;SHT30;61204;49.980;8.358;2022-12-07T04:41:58;3.41;93.07
72277;SHT30;61204;49.980;8.358;2022-12-07T04:44:26;3.42;93.00
72277;SHT30;61204;49.980;8.358;2022-12-07T04:46:54;3.41;93.12
72277;SHT30;61204;49.980;8.358;2022-12-07T04:49:21;3.40;93.24
72277;SHT30;61204;49.980;8.358;2022-12-07T04:51:47;3.41;93.37
72277;SHT30;61204;49.980;8.358;2022-12-07T04:54:15;3.40;93.37
72277;SHT30;61204;49.980;8.358;2022-12-07T04:56:43;3.38;93.53
72277;SHT30;61204;49.980;8.358;2022-12-07T04:59:11;3.40;93.56
72277;SHT30;61204;49.980;8.358;2022-12-07T05:01:38;3.41;93.64
72277;SHT30;61204;49.980;8.358;2022-12-07T05:04:05;3.41;93.66
72277;SHT30;61204;49.980;8.358;2022-12-07T05:06:32;3.42;93.42
72277;SHT30;61204;49.980;8.358;2022-12-07T05:08:58;3.45;93.46
72277;SHT30;61204;49.980;8.358;2022-12-07T05:11:23;3.45;93.15
72277;SHT30;61204;49.980;8.358;2022-12-07T05:14:19;3.45;93.26
72277;SHT30;61204;49.980;8.358;2022-12-07T05:16:49;3.50;93.29
72277;SHT30;61204;49.980;8.358;2022-12-07T05:19:17;3.54;93.31
72277;SHT30;61204;49.980;8.358;2022-12-07T05:21:44;3.61;93.10
72277;SHT30;61204;49.980;8.358;2022-12-07T05:24:13;3.79;92.07
72277;SHT30;61204;49.980;8.358;2022-12-07T05:26:40;3.86;91.75
72277;SHT30;61204;49.980;8.358;2022-12-07T05:29:07;3.96;91.34
72277;SHT30;61204;49.980;8.358;2022-12-07T05:31:33;4.07;90.56
72277;SHT30;61204;49.980;8.358;2022-12-07T05:33:59;4.25;89.52
72277;SHT30;61204;49.980;8.358;2022-12-07T05:36:25;4.33;89.20
72277;SHT30;61204;49.980;8.358;2022-12-07T05:38:51;4.34;89.37
72277;SHT30;61204;49.980;8.358;2022-12-07T05:41:18;4.34;89.39
72277;SHT30;61204;49.980;8.358;2022-12-07T05:44:04;4.47;88.52
72277;SHT30;61204;49.980;8.358;2022-12-07T05:46:30;4.50;88.40
72277;SHT30;61204;49.980;8.358;2022-12-07T05:48:55;4.57;87.88
72277;SHT30;61204;49.980;8.358;2022-12-07T05:51:21;4.72;87.11
72277;SHT30;61204;49.980;8.358;2022-12-07T05:53:47;4.59;87.51
72277;SHT30;61204;49.980;8.358;2022-12-07T05:56:14;4.57;87.56
72277;SHT30;61204;49.980;8.358;2022-12-07T05:58:39;4.52;88.09
72277;SHT30;61204;49.980;8.358;2022-12-07T06:01:24;4.61;87.30
72277;SHT30;61204;49.980;8.358;2022-12-07T06:03:49;4.69;87.17
72277;SHT30;61204;49.980;8.358;2022-12-07T06:06:15;4.73;86.72
72277;SHT30;61204;49.980;8.358;2022-12-07T06:08:40;4.61;87.47
72277;SHT30;61204;49.980;8.358;2022-12-07T06:11:06;4.68;87.33
72277;SHT30;61204;49.980;8.358;2022-12-07T06:13:50;4.58;87.39
72277;SHT30;61204;49.980;8.358;2022-12-07T06:16:15;4.68;87.50
72277;SHT30;61204;49.980;8.358;2022-12-07T06:18:41;4.58;87.53
72277;SHT30;61204;49.980;8.358;2022-12-07T06:21:07;4.68;87.34
72277;SHT30;61204;49.980;8.358;2022-12-07T06:23:32;4.64;87.46
72277;SHT30;61204;49.980;8.358;2022-12-07T06:25:58;4.65;87.20
72277;SHT30;61204;49.980;8.358;2022-12-07T06:28:23;4.64;87.03
72277;SHT30;61204;49.980;8.358;2022-12-07T06:30:58;4.61;87.53
72277;SHT30;61204;49.980;8.358;2022-12-07T06:33:24;4.54;87.74
72277;SHT30;61204;49.980;8.358;2022-12-07T06:35:50;4.50;88.11
72277;SHT30;61204;49.980;8.358;2022-12-07T06:38:16;4.58;87.59
72277;SHT30;61204;49.980;8.358;2022-12-07T06:40:42;4.57;87.84
72277;SHT30;61204;49.980;8.358;2022-12-07T06:43:07;4.75;86.85
72277;SHT30;61204;49.980;8.358;2022-12-07T06:45:33;4.73;86.83
72277;SHT30;61204;49.980;8.358;2022-12-07T06:47:58;4.68;87.16
72277;SHT30;61204;49.980;8.358;2022-12-07T06:50:24;4.76;86.99
72277;SHT30;61204;49.980;8.358;2022-12-07T06:52:51;4.61;87.57
72277;SHT30;61204;49.980;8.358;2022-12-07T06:55:17;4.64;87.38
72277;SHT30;61204;49.980;8.358;2022-12-07T06:57:43;4.55;87.73
72277;SHT30;61204;49.980;8.358;2022-12-07T07:00:10;4.71;86.82
72277;SHT30;61204;49.980;8.358;2022-12-07T07:02:36;4.64;87.34
72277;SHT30;61204;49.980;8.358;2022-12-07T07:05:02;4.59;87.68
72277;SHT30;61204;49.980;8.358;2022-12-07T07:07:28;4.50;87.96
72277;SHT30;61204;49.980;8.358;2022-12-07T07:09:54;4.45;88.40
72277;SHT30;61204;49.980;8.358;2022-12-07T07:12:20;4.61;87.85
72277;SHT30;61204;49.980;8.358;2022-12-07T07:14:45;4.50;88.03
72277;SHT30;61204;49.980;8.358;2022-12-07T07:17:11;4.54;87.97
72277;SHT30;61204;49.980;8.358;2022-12-07T07:19:37;4.44;88.44
72277;SHT30;61204;49.980;8.358;2022-12-07T07:22:03;4.38;88.65
72277;SHT30;61204;49.980;8.358;2022-12-07T07:24:29;4.61;88.19
72277;SHT30;61204;49.980;8.358;2022-12-07T07:26:54;4.52;87.98
72277;SHT30;61204;49.980;8.358;2022-12-07T07:29:20;4.40;88.64
72277;SHT30;61204;49.980;8.358;2022-12-07T07:31:46;4.34;88.97
72277;SHT30;61204;49.980;8.358;2022-12-07T07:34:12;4.33;89.23
72277;SHT30;61204;49.980;8.358;2022-12-07T07:36:37;4.31;89.41
72277;SHT30;61204;49.980;8.358;2022-12-07T07:39:03;4.29;89.65
72277;SHT30;61204;49.980;8.358;2022-12-07T07:41:30;4.31;89.47
72277;SHT30;61204;49.980;8.358;2022-12-07T07:43:56;4.33;89.22
72277;SHT30;61204;49.980;8.358;2022-12-07T07:46:22;4.36;89.50
72277;SHT30;61204;49.980;8.358;2022-12-07T07:48:47;4.44;89.17
72277;SHT30;61204;49.980;8.358;2022-12-07T07:51:13;4.44;89.22
72277;SHT30;61204;49.980;8.358;2022-12-07T07:53:39;4.47;89.16
72277;SHT30;61204;49.980;8.358;2022-12-07T07:56:05;4.48;89.19
72277;SHT30;61204;49.980;8.358;2022-12-07T07:58:30;4.78;87.94
72277;SHT30;61204;49.980;8.358;2022-12-07T08:00:56;4.82;87.47
72277;SHT30;61204;49.980;8.358;2022-12-07T08:03:21;4.85;87.67
72277;SHT30;61204;49.980;8.358;2022-12-07T08:05:47;4.93;87.00
72277;SHT30;61204;49.980;8.358;2022-12-07T08:08:12;4.80;87.60
72277;SHT30;61204;49.980;8.358;2022-12-07T08:10:38;4.78;87.79
72277;SHT30;61204;49.980;8.358;2022-12-07T08:13:04;4.89;87.45
72277;SHT30;61204;49.980;8.358;2022-12-07T08:15:38;4.83;87.50
72277;SHT30;61204;49.980;8.358;2022-12-07T08:18:05;4.78;87.82
72277;SHT30;61204;49.980;8.358;2022-12-07T08:20:32;4.79;87.96
72277;SHT30;61204;49.980;8.358;2022-12-07T08:23:00;4.79;87.55
72277;SHT30;61204;49.980;8.358;2022-12-07T08:25:26;4.72;87.68
72277;SHT30;61204;49.980;8.358;2022-12-07T08:27:53;4.72;87.73
72277;SHT30;61204;49.980;8.358;2022-12-07T08:30:20;4.73;87.63
72277;SHT30;61204;49.980;8.358;2022-12-07T08:32:47;4.75;87.40
72277;SHT30;61204;49.980;8.358;2022-12-07T08:35:14;4.67;87.61
72277;SHT30;61204;49.980;8.358;2022-12-07T08:37:40;4.69;87.55
72277;SHT30;61204;49.980;8.358;2022-12-07T08:40:08;4.79;87.34
72277;SHT30;61204;49.980;8.358;2022-12-07T08:42:36;4.69;87.57
72277;SHT30;61204;49.980;8.358;2022-12-07T08:45:15;4.65;87.86
72277;SHT30;61204;49.980;8.358;2022-12-07T08:47:58;4.58;87.96
72277;SHT30;61204;49.980;8.358;2022-12-07T08:50:29;4.54;88.42
72277;SHT30;61204;49.980;8.358;2022-12-07T08:52:59;4.55;88.40
72277;SHT30;61204;49.980;8.358;2022-12-07T08:55:27;4.59;88.47
72277;SHT30;61204;49.980;8.358;2022-12-07T08:57:55;4.69;88.38
72277;SHT30;61204;49.980;8.358;2022-12-07T09:00:22;4.97;87.46
72277;SHT30;61204;49.980;8.358;2022-12-07T09:02:47;5.06;87.06
72277;SHT30;61204;49.980;8.358;2022-12-07T09:05:13;5.14;86.80
72277;SHT30;61204;49.980;8.358;2022-12-07T09:07:45;5.17;86.30
72277;SHT30;61204;49.980;8.358;2022-12-07T09:10:14;5.09;86.60
72277;SHT30;61204;49.980;8.358;2022-12-07T09:12:40;5.32;86.18
72277;SHT30;61204;49.980;8.358;2022-12-07T09:15:07;5.35;85.74
72277;SHT30;61204;49.980;8.358;2022-12-07T09:17:34;5.56;83.96
72277;SHT30;61204;49.980;8.358;2022-12-07T09:20:01;5.47;83.72
72277;SHT30;61204;49.980;8.358;2022-12-07T09:22:30;5.55;83.82
72277;SHT30;61204;49.980;8.358;2022-12-07T09:25:00;5.59;82.82
72277;SHT30;61204;49.980;8.358;2022-12-07T09:27:27;5.55;83.22
72277;SHT30;61204;49.980;8.358;2022-12-07T09:29:53;5.44;83.92
72277;SHT30;61204;49.980;8.358;2022-12-07T09:32:19;5.34;84.68
72277;SHT30;61204;49.980;8.358;2022-12-07T09:34:45;5.30;84.83
72277;SHT30;61204;49.980;8.358;2022-12-07T09:37:11;5.41;84.53
72277;SHT30;61204;49.980;8.358;2022-12-07T09:39:40;5.42;84.65
72277;SHT30;61204;49.980;8.358;2022-12-07T09:42:07;5.44;84.91
72277;SHT30;61204;49.980;8.358;2022-12-07T09:44:35;5.59;84.64
72277;SHT30;61204;49.980;8.358;2022-12-07T09:47:02;5.97;83.93
72277;SHT30;61204;49.980;8.358;2022-12-07T09:49:31;6.13;82.44
72277;SHT30;61204;49.980;8.358;2022-12-07T09:52:17;6.31;81.92
72277;SHT30;61204;49.980;8.358;2022-12-07T09:54:50;6.40;81.11
72277;SHT30;61204;49.980;8.358;2022-12-07T09:57:23;6.48;80.75
72277;SHT30;61204;49.980;8.358;2022-12-07T09:59:57;6.58;79.93
72277;SHT30;61204;49.980;8.358;2022-12-07T10:02:39;6.55;79.60
72277;SHT30;61204;49.980;8.358;2022-12-07T10:05:14;6.55;79.48
72277;SHT30;61204;49.980;8.358;2022-12-07T10:07:43;6.53;79.35
72277;SHT30;61204;49.980;8.358;2022-12-07T10:10:25;6.52;79.83
72277;SHT30;61204;49.980;8.358;2022-12-07T10:13:19;6.56;79.23
72277;SHT30;61204;49.980;8.358;2022-12-07T10:15:57;6.48;79.67
72277;SHT30;61204;49.980;8.358;2022-12-07T10:18:35;6.37;79.48
72277;SHT30;61204;49.980;8.358;2022-12-07T10:21:19;6.41;79.67
72277;SHT30;61204;49.980;8.358;2022-12-07T10:26:40;6.40;79.35
72277;SHT30;61204;49.980;8.358;2022-12-07T10:29:34;6.35;79.37
72277;SHT30;61204;49.980;8.358;2022-12-07T10:32:29;6.41;79.68
72277;SHT30;61204;49.980;8.358;2022-12-07T10:35:30;7.24;78.13
72277;SHT30;61204;49.980;8.358;2022-12-07T10:37:59;8.21;75.14
72277;SHT30;61204;49.980;8.358;2022-12-07T10:40:32;8.56;71.92
72277;SHT30;61204;49.980;8.358;2022-12-07T10:46:13;9.43;68.50
72277;SHT30;61204;49.980;8.358;2022-12-07T10:52:43;11.28;64.46
72277;SHT30;61204;49.980;8.358;2022-12-07T11:06:45;13.06;55.65
72277;SHT30;61204;49.980;8.358;2022-12-07T11:09:58;12.25;56.75
72277;SHT30;61204;49.980;8.358;2022-12-07T11:22:50;9.41;65.49
72277;SHT30;61204;49.980;8.358;2022-12-07T11:26:05;9.48;65.91
72277;SHT30;61204;49.980;8.358;2022-12-07T11:38:02;8.91;65.62
72277;SHT30;61204;49.980;8.358;2022-12-07T11:40:38;8.84;66.29
72277;SHT30;61204;49.980;8.358;2022-12-07T11:43:34;8.70;67.09
72277;SHT30;61204;49.980;8.358;2022-12-07T11:46:07;8.81;67.96
72277;SHT30;61204;49.980;8.358;2022-12-07T11:51:22;8.93;67.50
72277;SHT30;61204;49.980;8.358;2022-12-07T11:53:53;8.90;66.71
72277;SHT30;61204;49.980;8.358;2022-12-07T11:56:27;8.77;67.77
72277;SHT30;61204;49.980;8.358;2022-12-07T11:59:01;8.84;68.12
72277;SHT30;61204;49.980;8.358;2022-12-07T12:04:19;10.08;64.00
72277;SHT30;61204;49.980;8.358;2022-12-07T12:06:52;10.42;62.91
72277;SHT30;61204;49.980;8.358;2022-12-07T12:09:32;10.34;62.78
72277;SHT30;61204;49.980;8.358;2022-12-07T12:12:23;10.30;63.30
72277;SHT30;61204;49.980;8.358;2022-12-07T12:18:35;9.86;63.27
72277;SHT30;61204;49.980;8.358;2022-12-07T12:21:16;9.20;66.16
72277;SHT30;61204;49.980;8.358;2022-12-07T12:23:58;8.70;66.83
72277;SHT30;61204;49.980;8.358;2022-12-07T12:26:33;8.21;67.85
72277;SHT30;61204;49.980;8.358;2022-12-07T12:29:05;8.14;68.26
72277;SHT30;61204;49.980;8.358;2022-12-07T12:31:43;7.98;69.15
72277;SHT30;61204;49.980;8.358;2022-12-07T12:42:57;10.50;62.03
72277;SHT30;61204;49.980;8.358;2022-12-07T12:45:30;10.77;61.88
72277;SHT30;61204;49.980;8.358;2022-12-07T12:48:00;11.00;60.73
72277;SHT30;61204;49.980;8.358;2022-12-07T12:50:36;11.07;58.46
72277;SHT30;61204;49.980;8.358;2022-12-07T12:53:16;11.21;59.27
72277;SHT30;61204;49.980;8.358;2022-12-07T12:58:43;9.85;60.62
72277;SHT30;61204;49.980;8.358;2022-12-07T13:04:03;10.27;60.88
72277;SHT30;61204;49.980;8.358;2022-12-07T13:06:42;10.81;58.46
72277;SHT30;61204;49.980;8.358;2022-12-07T13:09:20;10.94;57.85
72277;SHT30;61204;49.980;8.358;2022-12-07T13:12:12;11.30;55.48
72277;SHT30;61204;49.980;8.358;2022-12-07T13:14:56;11.54;54.84
72277;SHT30;61204;49.980;8.358;2022-12-07T13:20:06;11.56;55.53
72277;SHT30;61204;49.980;8.358;2022-12-07T13:25:33;11.38;55.45
72277;SHT30;61204;49.980;8.358;2022-12-07T13:28:17;11.32;55.67
72277;SHT30;61204;49.980;8.358;2022-12-07T13:33:35;11.36;55.72
72277;SHT30;61204;49.980;8.358;2022-12-07T13:36:02;11.41;55.53
72277;SHT30;61204;49.980;8.358;2022-12-07T13:38:33;11.49;54.89
72277;SHT30;61204;49.980;8.358;2022-12-07T13:41:15;11.63;55.06
72277;SHT30;61204;49.980;8.358;2022-12-07T13:43:54;11.54;55.58
72277;SHT30;61204;49.980;8.358;2022-12-07T13:49:50;11.67;55.02
72277;SHT30;61204;49.980;8.358;2022-12-07T13:52:23;11.56;54.98
72277;SHT30;61204;49.980;8.358;2022-12-07T13:54:59;11.62;55.03
72277;SHT30;61204;49.980;8.358;2022-12-07T13:57:27;11.72;58.07
72277;SHT30;61204;49.980;8.358;2022-12-07T13:59:56;11.25;56.77
72277;SHT30;61204;49.980;8.358;2022-12-07T14:02:30;10.73;59.05
72277;SHT30;61204;49.980;8.358;2022-12-07T14:05:34;9.79;60.12
72277;SHT30;61204;49.980;8.358;2022-12-07T14:13:35;8.73;63.47
72277;SHT30;61204;49.980;8.358;2022-12-07T14:16:35;8.41;64.93
72277;SHT30;61204;49.980;8.358;2022-12-07T14:19:20;8.27;65.66
72277;SHT30;61204;49.980;8.358;2022-12-07T14:25:22;8.20;66.78
72277;SHT30;61204;49.980;8.358;2022-12-07T14:28:01;8.18;66.98
72277;SHT30;61204;49.980;8.358;2022-12-07T14:30:30;8.10;68.33
72277;SHT30;61204;49.980;8.358;2022-12-07T14:33:04;8.03;69.82
72277;SHT30;61204;49.980;8.358;2022-12-07T14:35:32;7.98;70.48
72277;SHT30;61204;49.980;8.358;2022-12-07T14:37:58;7.86;71.97
72277;SHT30;61204;49.980;8.358;2022-12-07T14:40:27;7.79;76.66
72277;SHT30;61204;49.980;8.358;2022-12-07T14:43:05;7.58;77.74
72277;SHT30;61204;49.980;8.358;2022-12-07T14:45:34;7.45;77.65
72277;SHT30;61204;49.980;8.358;2022-12-07T14:48:00;7.59;74.18
72277;SHT30;61204;49.980;8.358;2022-12-07T14:50:25;7.45;75.64
72277;SHT30;61204;49.980;8.358;2022-12-07T14:53:14;7.45;74.80
72277;SHT30;61204;49.980;8.358;2022-12-07T14:55:43;7.36;74.98
72277;SHT30;61204;49.980;8.358;2022-12-07T14:58:15;7.20;76.28
72277;SHT30;61204;49.980;8.358;2022-12-07T15:00:43;7.08;77.19
72277;SHT30;61204;49.980;8.358;2022-12-07T15:03:10;7.03;78.96
72277;SHT30;61204;49.980;8.358;2022-12-07T15:05:37;6.94;79.08
72277;SHT30;61204;49.980;8.358;2022-12-07T15:08:03;6.90;80.24
72277;SHT30;61204;49.980;8.358;2022-12-07T15:10:32;6.82;81.45
72277;SHT30;61204;49.980;8.358;2022-12-07T15:13:02;6.77;81.90
72277;SHT30;61204;49.980;8.358;2022-12-07T15:15:49;6.76;81.38
72277;SHT30;61204;49.980;8.358;2022-12-07T15:18:17;6.69;81.13
72277;SHT30;61204;49.980;8.358;2022-12-07T15:20:44;6.68;81.41
72277;SHT30;61204;49.980;8.358;2022-12-07T15:23:12;6.61;81.80
72277;SHT30;61204;49.980;8.358;2022-12-07T15:25:46;6.53;81.03
72277;SHT30;61204;49.980;8.358;2022-12-07T15:28:14;6.46;81.22
72277;SHT30;61204;49.980;8.358;2022-12-07T15:30:42;6.44;81.66
72277;SHT30;61204;49.980;8.358;2022-12-07T15:33:10;6.40;82.23
72277;SHT30;61204;49.980;8.358;2022-12-07T15:35:41;6.28;83.04
72277;SHT30;61204;49.980;8.358;2022-12-07T15:38:10;6.35;82.62
72277;SHT30;61204;49.980;8.358;2022-12-07T15:40:37;6.20;83.32
72277;SHT30;61204;49.980;8.358;2022-12-07T15:43:03;6.06;82.61
72277;SHT30;61204;49.980;8.358;2022-12-07T15:45:29;5.76;84.02
72277;SHT30;61204;49.980;8.358;2022-12-07T15:47:54;5.56;84.49
72277;SHT30;61204;49.980;8.358;2022-12-07T15:50:21;5.38;86.19
72277;SHT30;61204;49.980;8.358;2022-12-07T15:52:48;5.28;87.33
72277;SHT30;61204;49.980;8.358;2022-12-07T15:55:14;5.20;87.57
72277;SHT30;61204;49.980;8.358;2022-12-07T15:57:40;5.20;86.54
72277;SHT30;61204;49.980;8.358;2022-12-07T16:00:08;5.10;86.82
72277;SHT30;61204;49.980;8.358;2022-12-07T16:02:37;5.04;87.50
72277;SHT30;61204;49.980;8.358;2022-12-07T16:05:03;4.99;87.49
72277;SHT30;61204;49.980;8.358;2022-12-07T16:07:29;4.89;87.82
72277;SHT30;61204;49.980;8.358;2022-12-07T16:09:55;4.82;88.19
72277;SHT30;61204;49.980;8.358;2022-12-07T16:12:20;4.75;88.87
72277;SHT30;61204;49.980;8.358;2022-12-07T16:14:46;4.68;89.39
72277;SHT30;61204;49.980;8.358;2022-12-07T16:17:11;4.64;89.70
72277;SHT30;61204;49.980;8.358;2022-12-07T16:19:37;4.55;89.63
72277;SHT30;61204;49.980;8.358;2022-12-07T16:22:04;4.47;89.93
72277;SHT30;61204;49.980;8.358;2022-12-07T16:24:31;4.42;89.85
72277;SHT30;61204;49.980;8.358;2022-12-07T16:26:57;4.33;90.05
72277;SHT30;61204;49.980;8.358;2022-12-07T16:29:23;4.27;90.26
72277;SHT30;61204;49.980;8.358;2022-12-07T16:31:51;4.20;90.55
72277;SHT30;61204;49.980;8.358;2022-12-07T16:34:18;4.14;90.79
72277;SHT30;61204;49.980;8.358;2022-12-07T16:36:44;4.11;90.97
72277;SHT30;61204;49.980;8.358;2022-12-07T16:39:10;4.07;91.36
72277;SHT30;61204;49.980;8.358;2022-12-07T16:41:36;4.06;91.36
72277;SHT30;61204;49.980;8.358;2022-12-07T16:44:06;3.99;91.29
72277;SHT30;61204;49.980;8.358;2022-12-07T16:46:34;3.95;91.46
72277;SHT30;61204;49.980;8.358;2022-12-07T16:49:02;3.92;91.44
72277;SHT30;61204;49.980;8.358;2022-12-07T16:51:28;3.89;91.68
72277;SHT30;61204;49.980;8.358;2022-12-07T16:53:54;3.85;91.95
72277;SHT30;61204;49.980;8.358;2022-12-07T16:56:20;3.83;92.20
72277;SHT30;61204;49.980;8.358;2022-12-07T16:58:46;3.81;92.47
72277;SHT30;61204;49.980;8.358;2022-12-07T17:01:20;3.75;92.65
72277;SHT30;61204;49.980;8.358;2022-12-07T17:03:48;3.72;92.73
72277;SHT30;61204;49.980;8.358;2022-12-07T17:06:23;3.72;93.10
72277;SHT30;61204;49.980;8.358;2022-12-07T17:08:51;3.72;93.10
72277;SHT30;61204;49.980;8.358;2022-12-07T17:11:21;3.68;92.97
72277;SHT30;61204;49.980;8.358;2022-12-07T17:13:50;3.67;92.87
72277;SHT30;61204;49.980;8.358;2022-12-07T17:16:35;3.62;92.92
72277;SHT30;61204;49.980;8.358;2022-12-07T17:19:04;3.64;93.25
72277;SHT30;61204;49.980;8.358;2022-12-07T17:21:32;3.64;93.98
72277;SHT30;61204;49.980;8.358;2022-12-07T17:24:00;3.59;94.09
72277;SHT30;61204;49.980;8.358;2022-12-07T17:26:28;3.57;93.96
72277;SHT30;61204;49.980;8.358;2022-12-07T17:28:54;3.54;93.77
72277;SHT30;61204;49.980;8.358;2022-12-07T17:31:22;3.52;93.82
72277;SHT30;61204;49.980;8.358;2022-12-07T17:33:49;3.57;93.63
72277;SHT30;61204;49.980;8.358;2022-12-07T17:36:23;3.65;92.94
72277;SHT30;61204;49.980;8.358;2022-12-07T17:38:51;3.67;92.16
72277;SHT30;61204;49.980;8.358;2022-12-07T17:41:21;3.68;92.12
72277;SHT30;61204;49.980;8.358;2022-12-07T17:44:14;3.71;92.20
72277;SHT30;61204;49.980;8.358;2022-12-07T17:46:43;3.74;92.18
72277;SHT30;61204;49.980;8.358;2022-12-07T17:49:12;3.71;92.29